»·PEaware :: N5157Z KSNA-KSNA

N5157Z :: KSNA-KSNA

FLIGHT INFORMATION

Flight Status: Arrived
Operator: Privately registered:
United States
More flights under this callsign
Pilot: Matt L. (27725)
Aircraft: CESSNA 172 SKYHAWK
(C172)
More flights by this aircraft type
Origin: KSNA John Wayne-Orange Co
United States
Destination: KSNA John Wayne-Orange Co
United States
More flights between these airports :: More routes between these airports
Route: SLI
File this flight plan on PilotEdge
Remarks:
Altitude:
(Current/Filed)
3,000ft
Speed:
(Current/Filed)
105kts
Departed: 12-Feb-20 02:04 PM
Arrived: 12-Feb-20 02:35 PM
Distance/Time
Traveled:
1nm/0:31
Distance/Time
To Go:
Arrived

Flight Plot

Page will automatically refresh every two minutes.


Map Options




Map Legend


Flown Route
Filed Route
Departure Airport
Arrival Airport
Navaid (VOR, NDB)
Fix

Horizontal Profiles

Position Reports

Time Latitude Longitude Heading Altitude Ground
Speed
12-Feb-20 13:37 33.667222 -117.872100 222 60ft 0kts
12-Feb-20 13:38 33.667222 -117.872100 222 60ft 0kts
12-Feb-20 13:39 33.667222 -117.872100 222 60ft 0kts
12-Feb-20 13:40 33.667222 -117.872100 222 60ft 0kts
12-Feb-20 13:41 33.667222 -117.872100 222 60ft 0kts
12-Feb-20 13:42 33.667222 -117.872100 222 60ft 0kts
12-Feb-20 13:43 33.667222 -117.872100 222 60ft 0kts
12-Feb-20 13:44 33.667222 -117.872100 222 60ft 0kts
12-Feb-20 13:45 33.667222 -117.872100 222 60ft 0kts
12-Feb-20 13:46 33.667222 -117.872100 222 60ft 0kts
12-Feb-20 13:47 33.667222 -117.872100 222 60ft 0kts
12-Feb-20 13:48 33.667222 -117.872100 222 60ft 0kts
12-Feb-20 13:49 33.667222 -117.872100 222 60ft 0kts
12-Feb-20 13:50 33.667222 -117.872100 222 60ft 0kts
12-Feb-20 13:51 33.667222 -117.872100 222 60ft 0kts
12-Feb-20 13:52 33.667222 -117.872100 222 60ft 0kts
12-Feb-20 13:53 33.667222 -117.872100 222 60ft 0kts
12-Feb-20 13:54 33.667222 -117.872100 222 60ft 0kts
12-Feb-20 13:55 33.667222 -117.872100 222 60ft 0kts
12-Feb-20 13:56 33.668030 -117.872040 40 60ft 14kts
12-Feb-20 13:57 33.672672 -117.867750 31 60ft 19kts
12-Feb-20 13:59 33.676259 -117.865709 26 60ft 19kts
12-Feb-20 14:00 33.679911 -117.863525 300 60ft 0kts
12-Feb-20 14:01 33.679911 -117.863525 300 60ft 0kts
12-Feb-20 14:02 33.679911 -117.863525 300 60ft 0kts
12-Feb-20 14:03 33.679911 -117.863525 300 60ft 0kts
12-Feb-20 14:04 33.669182 -117.871575 212 358ft 77kts
12-Feb-20 14:05 33.656426 -117.892794 242 1113ft 81kts
12-Feb-20 14:06 33.646596 -117.917364 242 1829ft 83kts
12-Feb-20 14:07 33.637029 -117.940463 241 2615ft 70kts
12-Feb-20 14:08 33.620197 -117.953782 212 2971ft 94kts
12-Feb-20 14:09 33.596535 -117.970221 212 2962ft 99kts
12-Feb-20 14:10 33.578722 -117.991583 284 2959ft 99kts
12-Feb-20 14:11 33.604811 -117.990693 23 2961ft 112kts
12-Feb-20 14:12 33.632873 -117.973515 24 2961ft 113kts
12-Feb-20 14:13 33.660872 -117.956266 24 2962ft 113kts
12-Feb-20 14:14 33.689083 -117.938936 24 2966ft 113kts
12-Feb-20 14:14 33.711745 -117.924974 24 3029ft 111kts
12-Feb-20 14:16 33.744292 -117.905030 24 3029ft 113kts
12-Feb-20 14:17 33.772399 -117.887897 24 3030ft 113kts
12-Feb-20 14:17 33.796108 -117.873675 24 3029ft 114kts
12-Feb-20 14:19 33.829351 -117.854140 24 3028ft 114kts
12-Feb-20 14:20 33.857881 -117.837713 24 3027ft 113kts
12-Feb-20 14:20 33.881678 -117.824089 23 3025ft 113kts
12-Feb-20 14:21 33.903227 -117.800906 91 3024ft 111kts
12-Feb-20 14:23 33.901427 -117.757449 94 3023ft 111kts
12-Feb-20 14:23 33.888974 -117.736374 194 3021ft 104kts
12-Feb-20 14:24 33.864273 -117.753808 214 3025ft 103kts
12-Feb-20 14:25 33.839806 -117.771671 199 3025ft 103kts
12-Feb-20 14:26 33.812285 -117.780448 217 3013ft 106kts
12-Feb-20 14:27 33.787994 -117.797108 213 2775ft 98kts
12-Feb-20 14:28 33.765470 -117.812070 203 2242ft 58kts
12-Feb-20 14:29 33.749716 -117.821715 213 1625ft 64kts
12-Feb-20 14:30 33.733936 -117.831588 206 1168ft 67kts
12-Feb-20 14:31 33.718194 -117.842087 212 890ft 65kts
12-Feb-20 14:32 33.702301 -117.851917 203 521ft 66kts
12-Feb-20 14:33 33.686614 -117.861980 206 284ft 62kts
12-Feb-20 14:34 33.677284 -117.866553 119 60ft 0kts
12-Feb-20 14:35 33.677284 -117.866553 119 60ft 0kts
12-Feb-20 14:36 33.677284 -117.866553 119 60ft 0kts
12-Feb-20 14:37 33.673679 -117.867078 143 60ft 15kts
12-Feb-20 14:38 33.667797 -117.872244 199 60ft 20kts
12-Feb-20 14:39 33.667124 -117.872159 301 60ft 0kts
12-Feb-20 14:40 33.667124 -117.872159 301 60ft 0kts
12-Feb-20 14:41 33.667124 -117.872159 301 60ft 0kts
12-Feb-20 14:42 33.667124 -117.872159 301 60ft 0kts
12-Feb-20 14:43 33.667124 -117.872159 301 60ft 0kts
12-Feb-20 14:44 33.667124 -117.872159 301 60ft 0kts
12-Feb-20 14:45 33.667124 -117.872159 301 60ft 0kts
12-Feb-20 14:46 33.667124 -117.872159 301 60ft 0kts
12-Feb-20 14:47 33.667124 -117.872159 301 60ft 0kts
12-Feb-20 14:48 33.667124 -117.872159 301 60ft 0kts

Navigation Log

Ident Type
Flight plan parsing failed, navigation log unavailable